sensor_id;sensor_type;location;lat;lon;timestamp;P1;durP1;ratioP1;P2;durP2;ratioP2
12484;SDS011;6307;46.804;11.580;2022-10-14T00:00:33;6.80;;;4.27;;
12484;SDS011;6307;46.804;11.580;2022-10-14T00:03:00;4.47;;;3.67;;
12484;SDS011;6307;46.804;11.580;2022-10-14T00:05:26;10.40;;;4.13;;
12484;SDS011;6307;46.804;11.580;2022-10-14T00:07:52;6.97;;;4.33;;
12484;SDS011;6307;46.804;11.580;2022-10-14T00:10:18;10.47;;;4.70;;
12484;SDS011;6307;46.804;11.580;2022-10-14T00:12:45;11.30;;;4.37;;
12484;SDS011;6307;46.804;11.580;2022-10-14T00:15:11;6.40;;;4.47;;
12484;SDS011;6307;46.804;11.580;2022-10-14T00:17:38;8.53;;;4.60;;
12484;SDS011;6307;46.804;11.580;2022-10-14T00:20:04;7.43;;;4.53;;
12484;SDS011;6307;46.804;11.580;2022-10-14T00:22:31;7.27;;;4.47;;
12484;SDS011;6307;46.804;11.580;2022-10-14T00:24:57;9.70;;;4.17;;
12484;SDS011;6307;46.804;11.580;2022-10-14T00:27:23;7.93;;;4.20;;
12484;SDS011;6307;46.804;11.580;2022-10-14T00:29:49;6.70;;;4.47;;
12484;SDS011;6307;46.804;11.580;2022-10-14T00:32:15;5.13;;;4.10;;
12484;SDS011;6307;46.804;11.580;2022-10-14T00:34:41;8.97;;;4.83;;
12484;SDS011;6307;46.804;11.580;2022-10-14T00:37:08;10.17;;;4.67;;
12484;SDS011;6307;46.804;11.580;2022-10-14T00:39:34;13.90;;;5.23;;
12484;SDS011;6307;46.804;11.580;2022-10-14T00:42:00;10.13;;;4.30;;
12484;SDS011;6307;46.804;11.580;2022-10-14T00:46:53;8.17;;;4.93;;
12484;SDS011;6307;46.804;11.580;2022-10-14T00:49:25;8.83;;;4.70;;
12484;SDS011;6307;46.804;11.580;2022-10-14T00:52:00;8.00;;;4.47;;
12484;SDS011;6307;46.804;11.580;2022-10-14T00:54:40;7.40;;;4.97;;
12484;SDS011;6307;46.804;11.580;2022-10-14T00:57:18;12.00;;;4.57;;
12484;SDS011;6307;46.804;11.580;2022-10-14T00:59:45;5.33;;;4.10;;
12484;SDS011;6307;46.804;11.580;2022-10-14T01:02:11;7.17;;;4.40;;
12484;SDS011;6307;46.804;11.580;2022-10-14T01:04:38;7.40;;;5.03;;
12484;SDS011;6307;46.804;11.580;2022-10-14T01:18:07;18.30;;;6.10;;
12484;SDS011;6307;46.804;11.580;2022-10-14T01:23:41;8.13;;;4.00;;
12484;SDS011;6307;46.804;11.580;2022-10-14T01:32:24;6.47;;;4.93;;
12484;SDS011;6307;46.804;11.580;2022-10-14T01:37:54;8.90;;;4.77;;
12484;SDS011;6307;46.804;11.580;2022-10-14T01:43:36;7.97;;;4.50;;
12484;SDS011;6307;46.804;11.580;2022-10-14T01:46:06;6.87;;;4.07;;
12484;SDS011;6307;46.804;11.580;2022-10-14T01:48:36;7.03;;;4.23;;
12484;SDS011;6307;46.804;11.580;2022-10-14T01:51:13;8.70;;;4.20;;
12484;SDS011;6307;46.804;11.580;2022-10-14T01:54:48;7.37;;;4.23;;
12484;SDS011;6307;46.804;11.580;2022-10-14T01:56:54;9.30;;;4.37;;
12484;SDS011;6307;46.804;11.580;2022-10-14T01:59:27;9.87;;;5.10;;
12484;SDS011;6307;46.804;11.580;2022-10-14T02:01:55;9.40;;;4.30;;
12484;SDS011;6307;46.804;11.580;2022-10-14T02:04:21;7.83;;;4.57;;
12484;SDS011;6307;46.804;11.580;2022-10-14T02:07:05;11.83;;;5.10;;
12484;SDS011;6307;46.804;11.580;2022-10-14T02:18:13;5.93;;;4.07;;
12484;SDS011;6307;46.804;11.580;2022-10-14T02:20:48;7.30;;;4.80;;
12484;SDS011;6307;46.804;11.580;2022-10-14T02:23:31;8.80;;;4.60;;
12484;SDS011;6307;46.804;11.580;2022-10-14T02:26:20;11.07;;;4.43;;
12484;SDS011;6307;46.804;11.580;2022-10-14T02:28:49;10.70;;;5.17;;
12484;SDS011;6307;46.804;11.580;2022-10-14T02:31:18;10.00;;;5.10;;
12484;SDS011;6307;46.804;11.580;2022-10-14T02:33:48;8.47;;;5.37;;
12484;SDS011;6307;46.804;11.580;2022-10-14T02:36:20;8.80;;;5.00;;
12484;SDS011;6307;46.804;11.580;2022-10-14T02:38:51;10.47;;;5.23;;
12484;SDS011;6307;46.804;11.580;2022-10-14T02:41:23;11.23;;;5.60;;
12484;SDS011;6307;46.804;11.580;2022-10-14T02:43:55;7.33;;;4.80;;
12484;SDS011;6307;46.804;11.580;2022-10-14T02:46:21;12.40;;;5.30;;
12484;SDS011;6307;46.804;11.580;2022-10-14T02:48:48;10.73;;;5.30;;
12484;SDS011;6307;46.804;11.580;2022-10-14T02:51:15;14.03;;;5.10;;
12484;SDS011;6307;46.804;11.580;2022-10-14T02:53:41;6.30;;;4.53;;
12484;SDS011;6307;46.804;11.580;2022-10-14T02:56:08;11.77;;;4.73;;
12484;SDS011;6307;46.804;11.580;2022-10-14T02:58:37;6.60;;;4.80;;
12484;SDS011;6307;46.804;11.580;2022-10-14T03:01:03;8.10;;;5.07;;
12484;SDS011;6307;46.804;11.580;2022-10-14T03:03:29;8.50;;;5.07;;
12484;SDS011;6307;46.804;11.580;2022-10-14T03:05:56;8.73;;;4.00;;
12484;SDS011;6307;46.804;11.580;2022-10-14T03:08:22;9.57;;;4.87;;
12484;SDS011;6307;46.804;11.580;2022-10-14T03:10:48;6.60;;;4.63;;
12484;SDS011;6307;46.804;11.580;2022-10-14T03:13:15;12.70;;;4.80;;
12484;SDS011;6307;46.804;11.580;2022-10-14T03:15:41;9.60;;;4.63;;
12484;SDS011;6307;46.804;11.580;2022-10-14T03:18:07;6.53;;;4.10;;
12484;SDS011;6307;46.804;11.580;2022-10-14T03:20:33;7.50;;;4.17;;
12484;SDS011;6307;46.804;11.580;2022-10-14T03:23:18;9.57;;;4.30;;
12484;SDS011;6307;46.804;11.580;2022-10-14T03:25:44;7.10;;;4.30;;
12484;SDS011;6307;46.804;11.580;2022-10-14T03:28:11;7.90;;;4.57;;
12484;SDS011;6307;46.804;11.580;2022-10-14T03:30:38;7.53;;;4.20;;
12484;SDS011;6307;46.804;11.580;2022-10-14T03:33:04;8.60;;;4.50;;
12484;SDS011;6307;46.804;11.580;2022-10-14T03:35:30;6.03;;;3.93;;
12484;SDS011;6307;46.804;11.580;2022-10-14T03:37:57;6.73;;;4.20;;
12484;SDS011;6307;46.804;11.580;2022-10-14T03:40:26;8.07;;;4.10;;
12484;SDS011;6307;46.804;11.580;2022-10-14T03:42:52;7.47;;;3.97;;
12484;SDS011;6307;46.804;11.580;2022-10-14T03:45:21;6.73;;;4.13;;
12484;SDS011;6307;46.804;11.580;2022-10-14T03:47:47;7.57;;;4.30;;
12484;SDS011;6307;46.804;11.580;2022-10-14T03:50:13;6.80;;;4.10;;
12484;SDS011;6307;46.804;11.580;2022-10-14T03:52:39;11.70;;;4.50;;
12484;SDS011;6307;46.804;11.580;2022-10-14T03:55:07;5.27;;;3.90;;
12484;SDS011;6307;46.804;11.580;2022-10-14T03:57:33;6.00;;;4.23;;
12484;SDS011;6307;46.804;11.580;2022-10-14T03:59:59;6.80;;;3.93;;
12484;SDS011;6307;46.804;11.580;2022-10-14T04:02:25;8.40;;;4.50;;
12484;SDS011;6307;46.804;11.580;2022-10-14T04:04:52;5.80;;;4.27;;
12484;SDS011;6307;46.804;11.580;2022-10-14T04:07:18;11.00;;;5.00;;
12484;SDS011;6307;46.804;11.580;2022-10-14T04:09:44;8.63;;;4.80;;
12484;SDS011;6307;46.804;11.580;2022-10-14T04:12:10;7.97;;;4.30;;
12484;SDS011;6307;46.804;11.580;2022-10-14T04:14:36;5.67;;;4.33;;
12484;SDS011;6307;46.804;11.580;2022-10-14T04:17:02;11.83;;;5.00;;
12484;SDS011;6307;46.804;11.580;2022-10-14T04:19:29;6.90;;;4.37;;
12484;SDS011;6307;46.804;11.580;2022-10-14T04:21:55;8.70;;;4.17;;
12484;SDS011;6307;46.804;11.580;2022-10-14T04:24:21;8.53;;;5.00;;
12484;SDS011;6307;46.804;11.580;2022-10-14T04:26:51;7.13;;;5.00;;
12484;SDS011;6307;46.804;11.580;2022-10-14T04:29:18;9.57;;;4.83;;
12484;SDS011;6307;46.804;11.580;2022-10-14T04:31:44;8.23;;;4.70;;
12484;SDS011;6307;46.804;11.580;2022-10-14T04:34:10;8.57;;;4.70;;
12484;SDS011;6307;46.804;11.580;2022-10-14T04:36:36;7.50;;;4.63;;
12484;SDS011;6307;46.804;11.580;2022-10-14T04:39:03;7.53;;;4.87;;
12484;SDS011;6307;46.804;11.580;2022-10-14T04:41:30;11.17;;;4.93;;
12484;SDS011;6307;46.804;11.580;2022-10-14T04:43:56;8.13;;;4.83;;
12484;SDS011;6307;46.804;11.580;2022-10-14T04:46:22;8.53;;;4.70;;
12484;SDS011;6307;46.804;11.580;2022-10-14T04:48:48;8.80;;;4.60;;
12484;SDS011;6307;46.804;11.580;2022-10-14T04:51:15;11.07;;;4.73;;
12484;SDS011;6307;46.804;11.580;2022-10-14T04:53:41;9.53;;;5.10;;
12484;SDS011;6307;46.804;11.580;2022-10-14T04:56:07;11.57;;;4.90;;
12484;SDS011;6307;46.804;11.580;2022-10-14T04:58:33;7.77;;;4.70;;
12484;SDS011;6307;46.804;11.580;2022-10-14T05:01:00;6.37;;;4.70;;
12484;SDS011;6307;46.804;11.580;2022-10-14T05:03:26;9.83;;;5.20;;
12484;SDS011;6307;46.804;11.580;2022-10-14T05:05:52;7.77;;;5.13;;
12484;SDS011;6307;46.804;11.580;2022-10-14T05:08:18;7.83;;;5.27;;
12484;SDS011;6307;46.804;11.580;2022-10-14T05:10:44;9.47;;;5.00;;
12484;SDS011;6307;46.804;11.580;2022-10-14T05:13:11;8.60;;;5.30;;
12484;SDS011;6307;46.804;11.580;2022-10-14T05:15:37;7.30;;;4.77;;
12484;SDS011;6307;46.804;11.580;2022-10-14T05:18:03;6.67;;;4.57;;
12484;SDS011;6307;46.804;11.580;2022-10-14T05:20:30;8.70;;;5.10;;
12484;SDS011;6307;46.804;11.580;2022-10-14T05:22:56;7.63;;;5.23;;
12484;SDS011;6307;46.804;11.580;2022-10-14T05:25:22;6.30;;;4.60;;
12484;SDS011;6307;46.804;11.580;2022-10-14T05:27:48;6.03;;;4.43;;
12484;SDS011;6307;46.804;11.580;2022-10-14T05:30:14;11.07;;;5.20;;
12484;SDS011;6307;46.804;11.580;2022-10-14T05:51:32;9.97;;;4.70;;
12484;SDS011;6307;46.804;11.580;2022-10-14T05:53:59;12.87;;;5.83;;
12484;SDS011;6307;46.804;11.580;2022-10-14T05:56:25;7.00;;;5.10;;
12484;SDS011;6307;46.804;11.580;2022-10-14T05:58:51;10.83;;;5.33;;
12484;SDS011;6307;46.804;11.580;2022-10-14T06:01:17;9.07;;;5.63;;
12484;SDS011;6307;46.804;11.580;2022-10-14T06:03:43;7.13;;;5.60;;
12484;SDS011;6307;46.804;11.580;2022-10-14T06:06:10;10.93;;;5.73;;
12484;SDS011;6307;46.804;11.580;2022-10-14T06:08:38;9.87;;;5.00;;
12484;SDS011;6307;46.804;11.580;2022-10-14T06:11:05;8.33;;;5.00;;
12484;SDS011;6307;46.804;11.580;2022-10-14T06:13:32;11.03;;;5.60;;
12484;SDS011;6307;46.804;11.580;2022-10-14T06:16:05;5.40;;;4.33;;
12484;SDS011;6307;46.804;11.580;2022-10-14T06:18:34;6.67;;;5.20;;
12484;SDS011;6307;46.804;11.580;2022-10-14T06:21:02;7.47;;;5.70;;
12484;SDS011;6307;46.804;11.580;2022-10-14T06:23:29;9.80;;;6.07;;
12484;SDS011;6307;46.804;11.580;2022-10-14T06:25:56;8.33;;;5.27;;
12484;SDS011;6307;46.804;11.580;2022-10-14T06:28:22;10.47;;;5.77;;
12484;SDS011;6307;46.804;11.580;2022-10-14T06:30:49;9.07;;;4.27;;
12484;SDS011;6307;46.804;11.580;2022-10-14T06:33:19;6.10;;;4.43;;
12484;SDS011;6307;46.804;11.580;2022-10-14T06:35:46;8.30;;;4.10;;
12484;SDS011;6307;46.804;11.580;2022-10-14T06:38:13;7.20;;;4.17;;
12484;SDS011;6307;46.804;11.580;2022-10-14T06:40:40;9.80;;;4.10;;
12484;SDS011;6307;46.804;11.580;2022-10-14T06:43:06;5.83;;;3.77;;
12484;SDS011;6307;46.804;11.580;2022-10-14T06:45:32;5.73;;;4.27;;
12484;SDS011;6307;46.804;11.580;2022-10-14T06:47:58;5.57;;;3.63;;
12484;SDS011;6307;46.804;11.580;2022-10-14T06:50:24;5.70;;;4.43;;
12484;SDS011;6307;46.804;11.580;2022-10-14T06:52:51;7.83;;;4.27;;
12484;SDS011;6307;46.804;11.580;2022-10-14T06:55:17;8.80;;;4.30;;
12484;SDS011;6307;46.804;11.580;2022-10-14T06:57:43;8.50;;;4.17;;
12484;SDS011;6307;46.804;11.580;2022-10-14T07:00:09;11.10;;;3.87;;
12484;SDS011;6307;46.804;11.580;2022-10-14T07:02:36;8.03;;;4.00;;
12484;SDS011;6307;46.804;11.580;2022-10-14T07:05:02;12.37;;;4.40;;
12484;SDS011;6307;46.804;11.580;2022-10-14T07:07:30;7.60;;;4.50;;
12484;SDS011;6307;46.804;11.580;2022-10-14T07:09:56;8.03;;;4.47;;
12484;SDS011;6307;46.804;11.580;2022-10-14T07:12:23;9.17;;;4.77;;
12484;SDS011;6307;46.804;11.580;2022-10-14T07:14:50;8.13;;;4.53;;
12484;SDS011;6307;46.804;11.580;2022-10-14T07:17:16;8.57;;;4.60;;
12484;SDS011;6307;46.804;11.580;2022-10-14T07:19:44;10.43;;;4.57;;
12484;SDS011;6307;46.804;11.580;2022-10-14T07:22:10;7.40;;;4.73;;
12484;SDS011;6307;46.804;11.580;2022-10-14T07:24:36;11.13;;;3.97;;
12484;SDS011;6307;46.804;11.580;2022-10-14T07:27:03;8.53;;;4.43;;
12484;SDS011;6307;46.804;11.580;2022-10-14T07:29:29;10.00;;;4.80;;
12484;SDS011;6307;46.804;11.580;2022-10-14T07:31:55;14.53;;;4.43;;
12484;SDS011;6307;46.804;11.580;2022-10-14T07:34:21;8.87;;;4.50;;
12484;SDS011;6307;46.804;11.580;2022-10-14T07:36:47;7.67;;;3.70;;
12484;SDS011;6307;46.804;11.580;2022-10-14T07:39:13;5.23;;;3.53;;
12484;SDS011;6307;46.804;11.580;2022-10-14T07:41:39;8.13;;;3.60;;
12484;SDS011;6307;46.804;11.580;2022-10-14T07:44:06;5.43;;;3.77;;
12484;SDS011;6307;46.804;11.580;2022-10-14T07:46:34;10.53;;;3.67;;
12484;SDS011;6307;46.804;11.580;2022-10-14T07:49:12;10.40;;;3.40;;
12484;SDS011;6307;46.804;11.580;2022-10-14T07:51:43;4.63;;;3.30;;
12484;SDS011;6307;46.804;11.580;2022-10-14T07:54:13;4.47;;;2.70;;
12484;SDS011;6307;46.804;11.580;2022-10-14T07:56:46;3.67;;;2.60;;
12484;SDS011;6307;46.804;11.580;2022-10-14T07:59:13;5.73;;;2.90;;
12484;SDS011;6307;46.804;11.580;2022-10-14T08:01:41;2.57;;;2.37;;
12484;SDS011;6307;46.804;11.580;2022-10-14T08:04:09;6.90;;;3.10;;
12484;SDS011;6307;46.804;11.580;2022-10-14T08:06:36;3.70;;;2.90;;
12484;SDS011;6307;46.804;11.580;2022-10-14T08:09:03;6.83;;;3.50;;
12484;SDS011;6307;46.804;11.580;2022-10-14T08:11:30;7.00;;;2.47;;
12484;SDS011;6307;46.804;11.580;2022-10-14T08:13:57;4.63;;;2.50;;
12484;SDS011;6307;46.804;11.580;2022-10-14T08:16:25;3.97;;;2.57;;
12484;SDS011;6307;46.804;11.580;2022-10-14T08:18:55;5.23;;;2.93;;
12484;SDS011;6307;46.804;11.580;2022-10-14T08:21:25;5.50;;;2.60;;
12484;SDS011;6307;46.804;11.580;2022-10-14T08:23:52;5.70;;;2.63;;
12484;SDS011;6307;46.804;11.580;2022-10-14T08:28:49;3.20;;;2.30;;
12484;SDS011;6307;46.804;11.580;2022-10-14T08:31:16;7.00;;;2.17;;
12484;SDS011;6307;46.804;11.580;2022-10-14T08:33:44;3.20;;;2.30;;
12484;SDS011;6307;46.804;11.580;2022-10-14T08:36:11;2.93;;;1.73;;
12484;SDS011;6307;46.804;11.580;2022-10-14T08:38:37;4.33;;;1.90;;
12484;SDS011;6307;46.804;11.580;2022-10-14T08:41:06;4.17;;;1.70;;
12484;SDS011;6307;46.804;11.580;2022-10-14T08:44:39;4.17;;;2.17;;
12484;SDS011;6307;46.804;11.580;2022-10-14T08:47:10;1.67;;;1.57;;
12484;SDS011;6307;46.804;11.580;2022-10-14T08:49:51;2.60;;;1.60;;
12484;SDS011;6307;46.804;11.580;2022-10-14T08:52:49;2.20;;;1.63;;
12484;SDS011;6307;46.804;11.580;2022-10-14T08:55:44;1.70;;;1.60;;
12484;SDS011;6307;46.804;11.580;2022-10-14T09:01:25;3.93;;;1.80;;
12484;SDS011;6307;46.804;11.580;2022-10-14T09:04:04;2.77;;;1.90;;
12484;SDS011;6307;46.804;11.580;2022-10-14T09:06:37;5.63;;;1.83;;
12484;SDS011;6307;46.804;11.580;2022-10-14T09:11:59;3.70;;;1.73;;
12484;SDS011;6307;46.804;11.580;2022-10-14T09:14:33;3.23;;;1.70;;
12484;SDS011;6307;46.804;11.580;2022-10-14T09:17:47;1.97;;;1.67;;
12484;SDS011;6307;46.804;11.580;2022-10-14T09:23:09;4.07;;;1.93;;
12484;SDS011;6307;46.804;11.580;2022-10-14T09:28:26;3.37;;;1.63;;
12484;SDS011;6307;46.804;11.580;2022-10-14T09:31:00;1.37;;;1.27;;
12484;SDS011;6307;46.804;11.580;2022-10-14T09:33:28;3.53;;;1.40;;
12484;SDS011;6307;46.804;11.580;2022-10-14T09:35:54;1.77;;;1.40;;
12484;SDS011;6307;46.804;11.580;2022-10-14T09:38:22;2.23;;;1.60;;
12484;SDS011;6307;46.804;11.580;2022-10-14T09:40:57;2.00;;;1.40;;
12484;SDS011;6307;46.804;11.580;2022-10-14T09:43:24;3.13;;;1.80;;
12484;SDS011;6307;46.804;11.580;2022-10-14T09:51:19;1.90;;;1.30;;
12484;SDS011;6307;46.804;11.580;2022-10-14T09:53:59;1.83;;;1.43;;
12484;SDS011;6307;46.804;11.580;2022-10-14T09:56:32;2.20;;;0.90;;
12484;SDS011;6307;46.804;11.580;2022-10-14T09:59:47;1.10;;;1.00;;
12484;SDS011;6307;46.804;11.580;2022-10-14T10:02:22;2.20;;;1.30;;
12484;SDS011;6307;46.804;11.580;2022-10-14T10:04:56;3.10;;;0.90;;
12484;SDS011;6307;46.804;11.580;2022-10-14T10:07:36;2.53;;;1.50;;
12484;SDS011;6307;46.804;11.580;2022-10-14T10:10:08;2.10;;;0.97;;
12484;SDS011;6307;46.804;11.580;2022-10-14T10:12:44;0.77;;;0.77;;
12484;SDS011;6307;46.804;11.580;2022-10-14T10:15:18;1.10;;;1.00;;
12484;SDS011;6307;46.804;11.580;2022-10-14T10:17:46;1.70;;;0.87;;
12484;SDS011;6307;46.804;11.580;2022-10-14T10:22:42;0.87;;;0.80;;
12484;SDS011;6307;46.804;11.580;2022-10-14T10:27:42;0.93;;;0.90;;
12484;SDS011;6307;46.804;11.580;2022-10-14T10:38:20;0.90;;;0.90;;
12484;SDS011;6307;46.804;11.580;2022-10-14T10:46:55;2.70;;;0.87;;
12484;SDS011;6307;46.804;11.580;2022-10-14T11:24:00;0.70;;;0.70;;
12484;SDS011;6307;46.804;11.580;2022-10-14T11:35:23;1.73;;;0.70;;
12484;SDS011;6307;46.804;11.580;2022-10-14T11:43:29;0.97;;;0.80;;
12484;SDS011;6307;46.804;11.580;2022-10-14T11:46:20;1.27;;;0.90;;
12484;SDS011;6307;46.804;11.580;2022-10-14T11:51:35;1.80;;;0.97;;
12484;SDS011;6307;46.804;11.580;2022-10-14T11:54:14;1.57;;;0.80;;
12484;SDS011;6307;46.804;11.580;2022-10-14T12:05:21;1.00;;;0.70;;
12484;SDS011;6307;46.804;11.580;2022-10-14T12:10:59;0.63;;;0.40;;
12484;SDS011;6307;46.804;11.580;2022-10-14T12:13:47;0.77;;;0.77;;
12484;SDS011;6307;46.804;11.580;2022-10-14T12:16:19;1.23;;;0.63;;
12484;SDS011;6307;46.804;11.580;2022-10-14T12:18:49;0.60;;;0.60;;
12484;SDS011;6307;46.804;11.580;2022-10-14T12:21:25;1.03;;;0.90;;
12484;SDS011;6307;46.804;11.580;2022-10-14T12:24:03;2.47;;;0.97;;
12484;SDS011;6307;46.804;11.580;2022-10-14T12:26:43;2.60;;;1.00;;
12484;SDS011;6307;46.804;11.580;2022-10-14T12:29:19;6.80;;;1.50;;
12484;SDS011;6307;46.804;11.580;2022-10-14T12:32:04;2.00;;;1.33;;
12484;SDS011;6307;46.804;11.580;2022-10-14T12:34:40;1.87;;;1.67;;
12484;SDS011;6307;46.804;11.580;2022-10-14T12:37:51;2.27;;;1.50;;
12484;SDS011;6307;46.804;11.580;2022-10-14T12:45:13;1.13;;;1.03;;
12484;SDS011;6307;46.804;11.580;2022-10-14T12:47:45;1.40;;;1.23;;
12484;SDS011;6307;46.804;11.580;2022-10-14T12:52:45;5.70;;;2.00;;
12484;SDS011;6307;46.804;11.580;2022-10-14T12:55:22;1.90;;;1.70;;
12484;SDS011;6307;46.804;11.580;2022-10-14T12:57:55;1.20;;;1.10;;
12484;SDS011;6307;46.804;11.580;2022-10-14T13:00:36;2.13;;;1.37;;
12484;SDS011;6307;46.804;11.580;2022-10-14T13:03:15;1.53;;;1.30;;
12484;SDS011;6307;46.804;11.580;2022-10-14T13:05:47;2.03;;;1.40;;
12484;SDS011;6307;46.804;11.580;2022-10-14T13:13:57;1.57;;;1.37;;
12484;SDS011;6307;46.804;11.580;2022-10-14T13:19:17;2.73;;;1.37;;
12484;SDS011;6307;46.804;11.580;2022-10-14T13:21:59;2.00;;;1.40;;
12484;SDS011;6307;46.804;11.580;2022-10-14T13:24:38;2.20;;;1.10;;
12484;SDS011;6307;46.804;11.580;2022-10-14T13:27:13;2.70;;;1.20;;
12484;SDS011;6307;46.804;11.580;2022-10-14T13:32:44;2.07;;;1.30;;
12484;SDS011;6307;46.804;11.580;2022-10-14T13:35:44;2.53;;;1.30;;
12484;SDS011;6307;46.804;11.580;2022-10-14T13:38:23;3.10;;;1.90;;
12484;SDS011;6307;46.804;11.580;2022-10-14T13:40:52;2.07;;;1.23;;
12484;SDS011;6307;46.804;11.580;2022-10-14T13:46:21;2.97;;;1.13;;
12484;SDS011;6307;46.804;11.580;2022-10-14T13:49:11;2.23;;;1.47;;
12484;SDS011;6307;46.804;11.580;2022-10-14T13:54:26;1.67;;;1.33;;
12484;SDS011;6307;46.804;11.580;2022-10-14T13:57:12;1.70;;;1.40;;
12484;SDS011;6307;46.804;11.580;2022-10-14T13:59:42;1.17;;;1.10;;
12484;SDS011;6307;46.804;11.580;2022-10-14T14:02:14;1.50;;;1.30;;
12484;SDS011;6307;46.804;11.580;2022-10-14T14:04:52;2.67;;;1.20;;
12484;SDS011;6307;46.804;11.580;2022-10-14T14:07:22;2.50;;;1.20;;
12484;SDS011;6307;46.804;11.580;2022-10-14T14:09:59;1.60;;;1.10;;
12484;SDS011;6307;46.804;11.580;2022-10-14T14:12:31;1.37;;;1.17;;
12484;SDS011;6307;46.804;11.580;2022-10-14T14:14:57;1.23;;;1.03;;
12484;SDS011;6307;46.804;11.580;2022-10-14T14:17:25;1.27;;;1.17;;
12484;SDS011;6307;46.804;11.580;2022-10-14T14:19:56;1.63;;;1.20;;
12484;SDS011;6307;46.804;11.580;2022-10-14T14:22:24;2.53;;;1.07;;
12484;SDS011;6307;46.804;11.580;2022-10-14T14:27:56;2.63;;;1.50;;
12484;SDS011;6307;46.804;11.580;2022-10-14T14:30:33;2.17;;;0.97;;
12484;SDS011;6307;46.804;11.580;2022-10-14T14:33:03;1.20;;;1.10;;
12484;SDS011;6307;46.804;11.580;2022-10-14T14:35:49;2.10;;;1.20;;
12484;SDS011;6307;46.804;11.580;2022-10-14T14:38:24;1.20;;;1.10;;
12484;SDS011;6307;46.804;11.580;2022-10-14T14:41:00;1.53;;;1.43;;
12484;SDS011;6307;46.804;11.580;2022-10-14T14:43:55;2.93;;;1.60;;
12484;SDS011;6307;46.804;11.580;2022-10-14T14:46:30;3.07;;;1.40;;
12484;SDS011;6307;46.804;11.580;2022-10-14T14:49:03;4.00;;;1.33;;
12484;SDS011;6307;46.804;11.580;2022-10-14T14:51:33;1.80;;;1.30;;
12484;SDS011;6307;46.804;11.580;2022-10-14T14:54:03;3.13;;;1.50;;
12484;SDS011;6307;46.804;11.580;2022-10-14T14:56:32;3.00;;;1.60;;
12484;SDS011;6307;46.804;11.580;2022-10-14T14:59:25;3.73;;;1.30;;
12484;SDS011;6307;46.804;11.580;2022-10-14T15:01:59;2.37;;;1.40;;
12484;SDS011;6307;46.804;11.580;2022-10-14T15:04:29;2.77;;;1.40;;
12484;SDS011;6307;46.804;11.580;2022-10-14T15:07:15;3.00;;;1.30;;
12484;SDS011;6307;46.804;11.580;2022-10-14T15:09:49;1.17;;;1.07;;
12484;SDS011;6307;46.804;11.580;2022-10-14T15:12:24;1.50;;;1.30;;
12484;SDS011;6307;46.804;11.580;2022-10-14T15:14:58;1.67;;;1.30;;
12484;SDS011;6307;46.804;11.580;2022-10-14T15:24:59;2.30;;;1.33;;
12484;SDS011;6307;46.804;11.580;2022-10-14T15:27:38;2.63;;;1.20;;
12484;SDS011;6307;46.804;11.580;2022-10-14T15:33:18;2.63;;;1.30;;
12484;SDS011;6307;46.804;11.580;2022-10-14T15:35:59;1.20;;;1.10;;
12484;SDS011;6307;46.804;11.580;2022-10-14T15:38:28;3.10;;;1.20;;
12484;SDS011;6307;46.804;11.580;2022-10-14T15:40:54;3.10;;;1.30;;
12484;SDS011;6307;46.804;11.580;2022-10-14T15:43:22;2.53;;;1.40;;
12484;SDS011;6307;46.804;11.580;2022-10-14T15:45:51;3.30;;;1.17;;
12484;SDS011;6307;46.804;11.580;2022-10-14T15:48:40;1.80;;;1.13;;
12484;SDS011;6307;46.804;11.580;2022-10-14T15:51:17;4.93;;;1.67;;
12484;SDS011;6307;46.804;11.580;2022-10-14T15:53:47;2.33;;;1.40;;
12484;SDS011;6307;46.804;11.580;2022-10-14T15:56:14;1.70;;;1.40;;
12484;SDS011;6307;46.804;11.580;2022-10-14T15:58:41;5.13;;;1.53;;
12484;SDS011;6307;46.804;11.580;2022-10-14T16:01:07;4.03;;;1.70;;
12484;SDS011;6307;46.804;11.580;2022-10-14T16:03:44;5.33;;;1.73;;
12484;SDS011;6307;46.804;11.580;2022-10-14T16:06:12;1.57;;;1.47;;
12484;SDS011;6307;46.804;11.580;2022-10-14T16:08:39;2.97;;;1.50;;
12484;SDS011;6307;46.804;11.580;2022-10-14T16:11:10;1.73;;;1.53;;
12484;SDS011;6307;46.804;11.580;2022-10-14T16:13:49;2.33;;;1.70;;
12484;SDS011;6307;46.804;11.580;2022-10-14T16:16:18;5.83;;;1.93;;
12484;SDS011;6307;46.804;11.580;2022-10-14T16:18:55;3.33;;;1.80;;
12484;SDS011;6307;46.804;11.580;2022-10-14T16:21:22;1.97;;;1.67;;
12484;SDS011;6307;46.804;11.580;2022-10-14T16:23:48;4.27;;;1.50;;
12484;SDS011;6307;46.804;11.580;2022-10-14T16:26:16;4.17;;;1.77;;
12484;SDS011;6307;46.804;11.580;2022-10-14T16:28:42;2.60;;;1.70;;
12484;SDS011;6307;46.804;11.580;2022-10-14T16:31:12;5.83;;;1.83;;
12484;SDS011;6307;46.804;11.580;2022-10-14T16:33:39;1.80;;;1.70;;
12484;SDS011;6307;46.804;11.580;2022-10-14T16:36:06;1.97;;;1.80;;
12484;SDS011;6307;46.804;11.580;2022-10-14T16:38:34;2.70;;;1.70;;
12484;SDS011;6307;46.804;11.580;2022-10-14T16:41:01;1.77;;;1.67;;
12484;SDS011;6307;46.804;11.580;2022-10-14T16:43:27;5.53;;;1.70;;
12484;SDS011;6307;46.804;11.580;2022-10-14T16:45:57;4.20;;;2.10;;
12484;SDS011;6307;46.804;11.580;2022-10-14T16:48:27;3.97;;;1.77;;
12484;SDS011;6307;46.804;11.580;2022-10-14T16:50:54;1.73;;;1.63;;
12484;SDS011;6307;46.804;11.580;2022-10-14T16:53:21;2.53;;;1.70;;
12484;SDS011;6307;46.804;11.580;2022-10-14T16:56:18;10.10;;;2.50;;
12484;SDS011;6307;46.804;11.580;2022-10-14T16:59:04;2.80;;;1.80;;
12484;SDS011;6307;46.804;11.580;2022-10-14T17:01:32;2.63;;;2.00;;
12484;SDS011;6307;46.804;11.580;2022-10-14T17:03:58;6.67;;;2.50;;
12484;SDS011;6307;46.804;11.580;2022-10-14T17:06:24;6.73;;;1.97;;
12484;SDS011;6307;46.804;11.580;2022-10-14T17:08:51;5.27;;;2.07;;
12484;SDS011;6307;46.804;11.580;2022-10-14T17:11:17;4.50;;;2.03;;
12484;SDS011;6307;46.804;11.580;2022-10-14T17:13:46;2.27;;;1.70;;
12484;SDS011;6307;46.804;11.580;2022-10-14T17:16:17;6.67;;;2.07;;
12484;SDS011;6307;46.804;11.580;2022-10-14T17:18:43;7.97;;;1.90;;
12484;SDS011;6307;46.804;11.580;2022-10-14T17:21:09;2.20;;;2.00;;
12484;SDS011;6307;46.804;11.580;2022-10-14T17:23:38;15.50;;;8.90;;
12484;SDS011;6307;46.804;11.580;2022-10-14T17:26:07;23.70;;;16.03;;
12484;SDS011;6307;46.804;11.580;2022-10-14T17:28:37;38.53;;;27.80;;
12484;SDS011;6307;46.804;11.580;2022-10-14T17:31:10;6.23;;;5.43;;
12484;SDS011;6307;46.804;11.580;2022-10-14T17:33:43;9.17;;;7.50;;
12484;SDS011;6307;46.804;11.580;2022-10-14T17:36:15;7.80;;;6.30;;
12484;SDS011;6307;46.804;11.580;2022-10-14T17:38:43;9.73;;;7.00;;
12484;SDS011;6307;46.804;11.580;2022-10-14T17:41:12;5.30;;;4.80;;
12484;SDS011;6307;46.804;11.580;2022-10-14T17:43:39;7.40;;;5.20;;
12484;SDS011;6307;46.804;11.580;2022-10-14T17:46:06;7.67;;;4.53;;
12484;SDS011;6307;46.804;11.580;2022-10-14T17:48:38;6.50;;;5.07;;
12484;SDS011;6307;46.804;11.580;2022-10-14T17:51:06;4.93;;;3.67;;
12484;SDS011;6307;46.804;11.580;2022-10-14T17:53:36;4.73;;;4.00;;
12484;SDS011;6307;46.804;11.580;2022-10-14T17:56:07;6.17;;;4.40;;
12484;SDS011;6307;46.804;11.580;2022-10-14T17:58:37;4.60;;;3.90;;
12484;SDS011;6307;46.804;11.580;2022-10-14T18:01:08;6.43;;;3.87;;
12484;SDS011;6307;46.804;11.580;2022-10-14T18:03:38;2.97;;;2.67;;
12484;SDS011;6307;46.804;11.580;2022-10-14T18:06:11;6.73;;;3.20;;
12484;SDS011;6307;46.804;11.580;2022-10-14T18:08:40;3.77;;;3.20;;
12484;SDS011;6307;46.804;11.580;2022-10-14T18:11:09;3.17;;;2.87;;
12484;SDS011;6307;46.804;11.580;2022-10-14T18:13:37;3.00;;;2.80;;
12484;SDS011;6307;46.804;11.580;2022-10-14T18:16:05;15.30;;;4.53;;
12484;SDS011;6307;46.804;11.580;2022-10-14T18:18:34;5.10;;;3.33;;
12484;SDS011;6307;46.804;11.580;2022-10-14T18:21:01;4.07;;;3.20;;
12484;SDS011;6307;46.804;11.580;2022-10-14T18:23:29;7.07;;;3.23;;